Time;durP1;ratioP1;P1;durP2;ratioP2;P2;SDS_P1;SDS_P2;PMS_P1;PMS_P2;Temp;Humidity;BMP_temperature;BMP_pressure;BME280_temperature;BME280_humidity;BME280_pressure;Samples;Min_cycle;Max_cycle;Signal;HPM_P1;HPM_P2
2022/06/23 00:05:41;;;;;;;9.10;4.60;;;;;;;12.02;69.29;99256.64;430372;1277;145367;-58
2022/06/23 00:15:47;;;;;;;21.40;7.60;;;;;;;11.89;69.22;99260.24;429871;1278;142488;-58
2022/06/23 00:25:57;;;;;;;9.90;6.70;;;;;;;11.85;70.29;99263.45;429825;1276;142834;-64
2022/06/23 00:36:14;;;;;;;11.30;7.20;;;;;;;11.91;70.99;99258.11;429655;1277;142197;-57
2022/06/23 00:46:26;;;;;;;15.20;6.60;;;;;;;11.95;70.94;99258.23;430000;1276;140990;-58
2022/06/23 00:56:44;;;;;;;8.70;4.70;;;;;;;11.87;70.48;99264.38;430130;1276;143597;-58
2022/06/23 01:06:58;;;;;;;7.60;5.40;;;;;;;11.82;70.70;99261.27;430904;1276;142418;-58
2022/06/23 01:17:11;;;;;;;7.40;5.20;;;;;;;11.75;70.79;99260.20;429393;1276;143444;-58
2022/06/23 01:27:37;;;;;;;6.90;5.40;;;;;;;11.66;70.76;99262.12;430767;1276;142079;-58
2022/06/23 01:37:49;;;;;;;11.60;5.00;;;;;;;11.52;71.12;99265.34;430713;1276;141888;-58
2022/06/23 01:48:00;;;;;;;7.50;6.00;;;;;;;11.47;71.88;99271.88;430081;1276;141899;-58
2022/06/23 01:58:13;;;;;;;6.10;5.50;;;;;;;11.52;72.69;99276.05;430524;1276;141822;-58
2022/06/23 02:08:35;;;;;;;8.00;5.50;;;;;;;11.42;72.55;99282.42;429723;1276;142332;-58
2022/06/23 02:18:50;;;;;;;9.50;5.90;;;;;;;11.29;72.50;99287.52;430320;1277;141943;-57
2022/06/23 02:29:03;;;;;;;8.90;5.90;;;;;;;11.25;72.65;99294.15;429081;1276;142280;-57
2022/06/23 02:39:16;;;;;;;5.80;5.20;;;;;;;11.21;72.56;99303.67;430134;1277;198573;-58
2022/06/23 02:50:09;;;;;;;7.40;5.30;;;;;;;11.24;72.55;99316.25;430028;1277;142093;-59
2022/06/23 03:00:22;;;;;;;6.10;5.10;;;;;;;12.03;72.76;99314.55;430301;1277;142315;-57
2022/06/23 03:10:31;;;;;;;11.90;5.50;;;;;;;13.61;70.62;99320.05;431971;1276;142358;-57
2022/06/23 03:20:47;;;;;;;10.30;5.30;;;;;;;16.08;67.08;99325.81;430606;1277;142109;-58
2022/06/23 03:31:00;;;;;;;7.90;4.50;;;;;;;18.32;64.01;99335.52;429340;1278;142720;-58
2022/06/23 03:51:35;;;;;;;7.90;5.10;;;;;;;18.49;58.24;99352.55;429294;1277;144164;-57
2022/06/23 04:01:46;;;;;;;5.10;4.50;;;;;;;21.73;57.93;99364.11;429100;1277;141741;-60
2022/06/23 04:12:01;;;;;;;8.60;5.50;;;;;;;28.49;49.35;99367.25;428117;1277;145409;-58
2022/06/23 04:22:11;;;;;;;10.30;5.30;;;;;;;32.68;41.92;99368.77;429321;1277;141721;-55
2022/06/23 04:32:21;;;;;;;10.90;6.20;;;;;;;36.03;36.37;99382.08;429612;1278;142762;-58
2022/06/23 04:42:28;;;;;;;12.80;8.50;;;;;;;39.13;31.75;99385.72;429087;1277;145293;-56
2022/06/23 04:52:39;;;;;;;12.80;6.20;;;;;;;41.54;28.20;99381.06;446107;1277;141293;-58
2022/06/23 05:02:52;;;;;;;16.80;7.10;;;;;;;44.95;24.58;99389.36;429674;1277;141489;-57
2022/06/23 05:13:03;;;;;;;12.30;5.90;;;;;;;47.69;21.67;99405.71;428632;1277;151452;-57
2022/06/23 05:23:17;;;;;;;12.20;6.20;;;;;;;49.57;19.11;99411.63;433442;1277;141774;-57
2022/06/23 05:33:28;;;;;;;16.90;6.40;;;;;;;52.06;16.85;99422.89;433391;1277;141718;-57
2022/06/23 05:43:41;;;;;;;8.10;4.50;;;;;;;53.74;15.10;99432.31;440684;1276;141704;-57
2022/06/23 05:54:07;;;;;;;4.00;3.60;;;;;;;55.06;13.33;99437.34;430456;1276;142014;-58
2022/06/23 06:04:19;;;;;;;4.10;3.30;;;;;;;56.48;11.65;99442.23;431239;1276;141103;-57
2022/06/23 06:14:30;;;;;;;6.10;4.30;;;;;;;57.57;10.91;99450.27;429377;1276;195722;-58
2022/06/23 06:24:42;;;;;;;5.00;4.70;;;;;;;58.30;10.03;99454.71;430211;1276;140864;-57
2022/06/23 06:34:52;;;;;;;6.50;6.30;;;;;;;58.74;9.34;99466.69;429488;1277;141710;-57
2022/06/23 06:45:00;;;;;;;9.40;8.60;;;;;;;58.69;9.10;99470.39;430659;1276;140574;-56
2022/06/23 06:55:12;;;;;;;12.50;12.10;;;;;;;59.70;8.55;99478.04;430475;1276;144883;-57
2022/06/23 07:05:26;;;;;;;17.80;17.10;;;;;;;60.46;7.81;99480.09;429512;1277;162965;-56
2022/06/23 07:15:35;;;;;;;20.40;19.60;;;;;;;60.37;7.90;99479.31;431508;1276;141467;-57
2022/06/23 07:25:46;;;;;;;21.90;20.90;;;;;;;59.63;7.91;99477.47;430540;1276;141740;-57
2022/06/23 07:35:58;;;;;;;24.20;23.20;;;;;;;59.98;7.38;99480.67;428875;1277;141855;-55
2022/06/23 07:46:04;;;;;;;10.10;9.60;;;;;;;59.41;7.30;99486.61;429525;1276;141482;-57
2022/06/23 07:56:14;;;;;;;2.90;1.80;;;;;;;54.31;8.37;99483.48;429860;1276;141494;-58
2022/06/23 08:06:21;;;;;;;6.10;1.50;;;;;;;46.87;11.38;99482.25;429508;1276;142029;-58
2022/06/23 08:26:56;;;;;;;4.50;2.30;;;;;;;36.18;17.21;99504.56;428566;1275;143104;-59
2022/06/23 08:37:06;;;;;;;1.00;0.90;;;;;;;33.93;18.93;99508.27;429496;1276;330404;-57
2022/06/23 08:47:21;;;;;;;1.40;1.20;;;;;;;32.90;19.55;99516.36;429992;1277;143528;-56
2022/06/23 08:57:35;;;;;;;2.10;1.40;;;;;;;30.98;21.12;99524.27;430498;1276;143456;-58
2022/06/23 09:07:53;;;;;;;1.40;1.10;;;;;;;29.60;22.46;99526.48;432014;1277;141189;-58
2022/06/23 09:18:26;;;;;;;3.30;1.70;;;;;;;29.44;22.58;99531.50;430703;1276;141054;-57
2022/06/23 09:28:43;;;;;;;1.90;1.30;;;;;;;28.84;23.34;99529.66;429537;1277;144941;-57
2022/06/23 09:39:16;;;;;;;2.70;1.30;;;;;;;28.78;24.32;99531.78;429111;1277;141221;-58
2022/06/23 09:49:40;;;;;;;3.00;1.40;;;;;;;28.59;24.71;99529.26;429355;1276;141289;-58
2022/06/23 09:59:59;;;;;;;1.30;1.20;;;;;;;28.41;25.21;99532.90;428924;1276;141552;-56
2022/06/23 10:10:13;;;;;;;1.90;1.60;;;;;;;27.83;24.87;99532.00;430689;1276;141533;-57
2022/06/23 10:20:46;;;;;;;1.30;1.30;;;;;;;27.49;25.78;99523.47;429227;1276;142963;-57
2022/06/23 10:31:04;;;;;;;1.50;1.30;;;;;;;27.16;26.37;99525.59;429390;1276;142447;-57
2022/06/23 10:41:38;;;;;;;4.20;2.30;;;;;;;26.36;26.98;99525.73;429581;1276;143592;-57
2022/06/23 10:52:01;;;;;;;1.70;1.40;;;;;;;26.04;27.98;99513.95;429611;1277;143282;-58
2022/06/23 11:02:41;;;;;;;4.50;1.40;;;;;;;25.89;28.49;99508.90;428037;1276;141870;-58
2022/06/23 11:12:59;;;;;;;1.80;1.30;;;;;;;25.76;28.71;99516.29;428753;1277;141245;-57
2022/06/23 11:23:16;;;;;;;2.80;1.50;;;;;;;25.66;28.88;99517.29;429077;1276;141586;-57
2022/06/23 11:33:47;;;;;;;2.80;1.20;;;;;;;25.89;28.75;99512.45;429786;1276;142663;-55
2022/06/23 11:44:12;;;;;;;4.20;2.00;;;;;;;26.29;28.83;99511.44;430552;1276;140562;-58
2022/06/23 11:54:32;;;;;;;2.90;1.30;;;;;;;25.94;28.53;99520.79;429771;1276;141134;-57
2022/06/23 12:04:55;;;;;;;4.20;1.60;;;;;;;25.45;29.63;99517.61;430875;1275;140695;-58
2022/06/23 12:15:02;;;;;;;5.00;1.40;;;;;;;25.52;30.40;99512.71;430972;1274;141911;-60
2022/06/23 12:25:21;;;;;;;8.90;2.30;;;;;;;25.31;30.77;99513.09;429827;1273;141448;-59
2022/06/23 12:35:37;;;;;;;2.10;1.40;;;;;;;25.13;30.53;99506.86;429796;1274;145018;-60
2022/06/23 12:46:05;;;;;;;3.20;1.50;;;;;;;25.23;31.19;99512.91;431169;1273;140988;-63
2022/06/23 12:56:26;;;;;;;4.30;2.20;;;;;;;25.14;31.56;99514.88;430829;1273;144792;-58
2022/06/23 13:06:40;;;;;;;5.10;1.50;;;;;;;25.04;31.58;99505.54;431940;1274;141241;-57
2022/06/23 13:16:51;;;;;;;2.20;1.60;;;;;;;25.23;31.50;99498.49;431864;1276;141973;-58
2022/06/23 13:27:08;;;;;;;4.90;1.60;;;;;;;25.31;31.45;99489.73;432272;1274;143211;-58
2022/06/23 13:37:19;;;;;;;1.40;1.30;;;;;;;25.39;31.40;99486.96;436958;1273;143873;-57
2022/06/23 13:47:32;;;;;;;2.10;1.60;;;;;;;25.09;31.21;99491.45;432942;1273;194353;-57
2022/06/23 13:57:45;;;;;;;2.60;1.50;;;;;;;25.01;31.84;99491.93;431796;1274;141940;-57
2022/06/23 14:07:59;;;;;;;2.10;1.40;;;;;;;24.93;31.95;99483.58;443738;1274;146807;-58
2022/06/23 14:18:12;;;;;;;2.20;1.20;;;;;;;24.88;32.08;99471.55;446984;1273;145517;-61
2022/06/23 14:28:25;;;;;;;2.10;1.40;;;;;;;24.97;31.96;99465.62;436709;1273;141481;-57
2022/06/23 14:38:37;;;;;;;3.30;1.80;;;;;;;25.03;31.71;99461.30;445782;1274;143336;-58
2022/06/23 14:49:14;;;;;;;2.20;1.30;;;;;;;25.01;31.82;99465.61;446797;1273;144368;-58
2022/06/23 14:59:27;;;;;;;2.10;1.40;;;;;;;25.12;32.51;99454.33;441932;1273;142574;-57
2022/06/23 15:09:47;;;;;;;4.10;2.30;;;;;;;25.09;32.59;99449.39;446556;1273;142600;-59
2022/06/23 15:19:57;;;;;;;1.60;1.30;;;;;;;24.97;32.98;99447.27;446556;1273;142075;-59
2022/06/23 15:30:09;;;;;;;1.90;1.50;;;;;;;24.89;33.16;99448.36;446593;1273;142695;-58
2022/06/23 15:40:29;;;;;;;1.80;1.70;;;;;;;24.84;33.41;99445.02;446683;1273;141536;-59
2022/06/23 15:50:41;;;;;;;4.80;1.90;;;;;;;24.81;33.17;99443.66;441893;1273;144842;-59
2022/06/23 16:00:54;;;;;;;2.00;1.40;;;;;;;24.85;33.41;99440.47;442721;1274;142885;-57
2022/06/23 16:11:03;;;;;;;3.60;2.00;;;;;;;24.77;33.44;99446.01;434269;1274;151723;-58
2022/06/23 16:21:13;;;;;;;3.10;1.60;;;;;;;24.72;33.74;99450.02;439966;1273;141977;-57
2022/06/23 16:31:27;;;;;;;2.50;2.20;;;;;;;24.64;34.07;99443.10;446879;1273;141752;-58
2022/06/23 16:41:45;;;;;;;2.40;1.60;;;;;;;24.54;34.00;99446.45;446204;1273;143752;-57
2022/06/23 16:51:51;;;;;;;;;;;;;;;24.51;34.04;99448.20;446580;1274;144594;-58
2022/06/23 17:02:03;;;;;;;2.00;1.30;;;;;;;24.51;34.59;99450.39;432082;1276;128975;-57
2022/06/23 17:12:14;;;;;;;2.00;1.30;;;;;;;24.33;34.47;99452.94;440268;1273;140867;-58
2022/06/23 17:22:25;;;;;;;2.60;1.70;;;;;;;24.17;35.00;99456.02;446913;1273;141207;-59
2022/06/23 17:32:41;;;;;;;3.40;1.30;;;;;;;24.04;35.32;99456.90;444621;1273;141573;-58
2022/06/23 17:53:31;;;;;;;2.50;1.90;;;;;;;23.60;36.21;99461.11;431083;1276;141121;-58
2022/06/23 18:03:43;;;;;;;2.80;1.50;;;;;;;23.80;36.35;99468.13;430854;1277;142705;-58
2022/06/23 18:13:57;;;;;;;3.10;1.70;;;;;;;23.35;36.85;99478.20;431191;1277;195289;-57
2022/06/23 18:24:14;;;;;;;5.60;3.10;;;;;;;22.95;37.87;99478.36;430953;1276;142367;-57
2022/06/23 18:34:28;;;;;;;3.70;1.90;;;;;;;22.65;38.74;99485.13;430126;1275;141825;-58
2022/06/23 18:44:40;;;;;;;2.50;2.10;;;;;;;22.32;39.34;99489.41;429626;1276;143946;-58
2022/06/23 18:54:55;;;;;;;3.20;2.20;;;;;;;21.97;40.07;99491.73;432447;1273;141277;-59
2022/06/23 19:05:07;;;;;;;4.40;2.40;;;;;;;21.59;40.97;99506.68;431021;1273;142654;-58
2022/06/23 19:15:20;;;;;;;5.30;2.60;;;;;;;21.23;41.96;99510.81;430773;1273;144064;-58
2022/06/23 19:25:38;;;;;;;7.30;2.70;;;;;;;20.91;42.73;99518.09;429681;1273;142246;-58
2022/06/23 19:35:54;;;;;;;5.60;3.60;;;;;;;20.60;43.61;99518.08;430997;1274;141624;-58
2022/06/23 19:46:08;;;;;;;6.90;3.00;;;;;;;20.33;44.50;99519.95;429864;1275;141159;-58
2022/06/23 19:56:21;;;;;;;4.90;2.90;;;;;;;20.01;45.36;99521.67;429510;1274;145234;-58
2022/06/23 20:06:55;;;;;;;7.00;4.60;;;;;;;19.73;46.35;99525.38;431090;1274;145435;-58
2022/06/23 20:17:11;;;;;;;15.40;7.70;;;;;;;19.47;47.36;99521.84;429432;1273;147045;-58
2022/06/23 20:27:28;;;;;;;16.40;10.20;;;;;;;19.20;48.44;99522.97;430956;1274;147714;-58
2022/06/23 20:38:14;;;;;;;8.50;5.00;;;;;;;18.90;49.18;99521.33;432597;1273;337348;-58
2022/06/23 20:48:34;;;;;;;8.10;5.40;;;;;;;18.67;50.01;99517.55;431161;1274;145783;-58
2022/06/23 20:58:50;;;;;;;6.50;3.90;;;;;;;18.52;50.43;99515.83;431204;1274;142426;-57
2022/06/23 21:09:03;;;;;;;5.20;3.80;;;;;;;18.35;50.81;99517.71;430549;1274;146293;-58
2022/06/23 21:19:21;;;;;;;7.20;4.50;;;;;;;18.16;51.40;99525.20;430902;1274;147478;-59
2022/06/23 21:29:46;;;;;;;12.50;5.00;;;;;;;17.98;52.30;99518.23;434886;1274;141431;-58
2022/06/23 21:39:58;;;;;;;17.20;5.90;;;;;;;17.65;54.05;99525.56;432550;1275;140322;-57
2022/06/23 21:50:15;;;;;;;9.00;3.70;;;;;;;17.33;55.13;99528.21;429205;1273;142996;-60
2022/06/23 22:00:24;;;;;;;8.50;4.60;;;;;;;17.02;55.82;99525.21;434232;1274;141179;-59
2022/06/23 22:10:32;;;;;;;15.80;4.70;;;;;;;16.81;56.03;99531.81;432112;1276;142167;-59
2022/06/23 22:20:43;;;;;;;6.40;4.40;;;;;;;16.84;55.88;99536.21;430479;1272;141411;-59
2022/06/23 22:30:50;;;;;;;4.60;3.40;;;;;;;16.85;55.68;99533.77;430244;1274;145215;-58
2022/06/23 22:41:08;;;;;;;7.30;4.20;;;;;;;16.85;55.64;99529.86;429647;1274;141505;-56
2022/06/23 22:51:17;;;;;;;8.50;4.30;;;;;;;16.71;55.91;99534.52;430623;1274;208721;-60
2022/06/23 23:01:37;;;;;;;;;;;;;;;16.71;55.79;99533.95;429726;1274;141780;-58
2022/06/23 23:11:43;;;;;;;4.10;3.20;;;;;;;16.62;55.98;99529.11;430720;1273;127783;-58
2022/06/23 23:21:49;;;;;;;5.10;3.70;;;;;;;16.46;56.35;99527.91;438409;1273;142454;-58
2022/06/23 23:31:58;;;;;;;4.00;3.40;;;;;;;16.35;56.69;99526.59;443346;1274;182861;-57
2022/06/23 23:42:03;;;;;;;;;;;;;;;16.15;57.87;99532.35;444382;1274;142588;-58
2022/06/23 23:52:10;;;;;;;4.70;3.90;;;;;;;15.90;58.65;99537.94;445655;1273;128392;-55
